createdAt,value
2023-05-22T00:01:53.330Z,99541.16
2023-05-22T00:03:56.389Z,99547.75
2023-05-22T00:06:00.706Z,99531.28
2023-05-22T00:08:05.153Z,99532.81
2023-05-22T00:10:08.536Z,99527.78
2023-05-22T00:12:11.777Z,99527.53
2023-05-22T00:14:16.542Z,99516.97
2023-05-22T00:16:19.571Z,99522.97
2023-05-22T00:18:23.042Z,99517.81
2023-05-22T00:20:26.624Z,99515.38
2023-05-22T00:22:31.847Z,99516.19
2023-05-22T00:24:34.812Z,99518.06
2023-05-22T00:26:37.886Z,99514.19
2023-05-22T00:28:40.955Z,99515.22
2023-05-22T00:30:46.098Z,99514.63
2023-05-22T00:32:49.351Z,99509.72
2023-05-22T00:34:52.556Z,99513.44
2023-05-22T00:36:55.646Z,99510.63
2023-05-22T00:38:58.605Z,99514.41
2023-05-22T00:41:02.112Z,99513.81
2023-05-22T00:43:09.030Z,99507.78
2023-05-22T00:45:13.427Z,99502.03
2023-05-22T00:47:17.921Z,99502.50
2023-05-22T00:49:21.069Z,99502.50
2023-05-22T00:51:25.241Z,99500.97
2023-05-22T00:53:30.806Z,99500.97
2023-05-22T00:55:34.607Z,99497.44
2023-05-22T00:57:42.203Z,99495.22
2023-05-22T00:59:45.524Z,99501.06
2023-05-22T01:01:48.602Z,99494.47
2023-05-22T01:03:54.130Z,99502.78
2023-05-22T01:05:56.807Z,99495.19
2023-05-22T01:07:59.783Z,99492.50
2023-05-22T01:10:02.705Z,99495.88
2023-05-22T01:12:17.713Z,99494.09
2023-05-22T01:14:30.353Z,99493.50
2023-05-22T01:16:39.957Z,99493.00
2023-05-22T01:18:47.103Z,99493.44
2023-05-22T01:20:58.503Z,99493.69
2023-05-22T01:23:49.109Z,99488.25
2023-05-22T01:26:32.346Z,99488.34
2023-05-22T01:28:49.193Z,99478.25
2023-05-22T01:31:02.499Z,99478.25
2023-05-22T01:33:09.021Z,99487.50
2023-05-22T01:35:14.934Z,99480.72
2023-05-22T01:37:20.196Z,99482.59
2023-05-22T01:39:26.119Z,99492.41
2023-05-22T01:41:30.115Z,99500.91
2023-05-22T01:43:33.247Z,99491.19
2023-05-22T01:45:36.692Z,99493.28
2023-05-22T01:47:41.222Z,99487.31
2023-05-22T01:49:45.045Z,99487.19
2023-05-22T01:51:56.251Z,99484.78
2023-05-22T01:54:06.473Z,99487.78
2023-05-22T01:56:15.028Z,99483.84
2023-05-22T01:58:32.976Z,99488.63
2023-05-22T02:00:37.986Z,99481.22
2023-05-22T02:02:45.487Z,99486.81
2023-05-22T02:04:56.317Z,99490.78
2023-05-22T02:07:03.001Z,99488.53
2023-05-22T02:09:07.548Z,99483.81
2023-05-22T02:11:16.998Z,99483.00
2023-05-22T02:13:20.188Z,99486.94
2023-05-22T02:15:23.287Z,99483.88
2023-05-22T02:17:26.459Z,99484.13
2023-05-22T02:19:31.090Z,99486.06
2023-05-22T02:21:34.522Z,99477.41
2023-05-22T02:23:38.274Z,99484.25
2023-05-22T02:25:41.587Z,99480.75
2023-05-22T02:27:45.402Z,99484.50
2023-05-22T02:29:48.543Z,99486.34
2023-05-22T02:31:54.801Z,99482.84
2023-05-22T02:33:57.768Z,99484.69
2023-05-22T02:36:02.718Z,99481.41
2023-05-22T02:38:06.906Z,99473.75
2023-05-22T02:40:11.175Z,99476.69
2023-05-22T02:42:15.163Z,99477.13
2023-05-22T02:44:18.243Z,99474.50
2023-05-22T02:46:21.289Z,99476.09
2023-05-22T02:48:24.643Z,99473.94
2023-05-22T02:50:28.055Z,99478.88
2023-05-22T02:52:32.500Z,99475.75
2023-05-22T02:54:35.467Z,99473.66
2023-05-22T02:56:38.497Z,99478.22
2023-05-22T02:58:41.455Z,99474.31
2023-05-22T03:00:44.701Z,99477.66
2023-05-22T03:02:47.732Z,99477.63
2023-05-22T03:04:51.897Z,99479.88
2023-05-22T03:06:55.117Z,99486.22
2023-05-22T03:08:59.813Z,99485.19
2023-05-22T03:11:03.170Z,99489.41
2023-05-22T03:13:06.390Z,99478.25
2023-05-22T03:15:10.755Z,99481.75
2023-05-22T03:17:15.465Z,99482.75
2023-05-22T03:19:18.593Z,99482.75
2023-05-22T03:21:21.585Z,99479.00
2023-05-22T03:23:25.770Z,99478.16
2023-05-22T03:25:31.029Z,99484.03
2023-05-22T03:27:34.036Z,99477.25
2023-05-22T03:29:37.841Z,99479.22
2023-05-22T03:31:41.164Z,99483.53
2023-05-22T03:33:47.304Z,99483.94
2023-05-22T03:35:50.540Z,99490.31
2023-05-22T03:37:53.779Z,99484.47
2023-05-22T03:39:56.773Z,99486.78
2023-05-22T03:42:07.729Z,99488.59
2023-05-22T03:44:12.427Z,99487.75
2023-05-22T03:46:15.754Z,99490.91
2023-05-22T03:48:18.782Z,99489.16
2023-05-22T03:50:22.031Z,99487.19
2023-05-22T03:52:25.698Z,99489.28
2023-05-22T03:54:28.722Z,99484.94
2023-05-22T03:56:32.627Z,99485.75
2023-05-22T03:58:37.127Z,99488.16
2023-05-22T04:00:42.917Z,99490.16
2023-05-22T04:02:47.188Z,99488.91
2023-05-22T04:04:50.923Z,99489.13
2023-05-22T04:06:54.669Z,99493.25
2023-05-22T04:08:57.595Z,99488.84
2023-05-22T04:11:00.902Z,99483.81
2023-05-22T04:13:03.952Z,99483.38
2023-05-22T04:15:09.815Z,99489.56
2023-05-22T04:17:12.809Z,99490.69
2023-05-22T04:19:15.902Z,99488.75
2023-05-22T04:21:19.445Z,99479.31
2023-05-22T04:23:23.054Z,99489.19
2023-05-22T04:25:27.566Z,99493.81
2023-05-22T04:27:30.650Z,99495.06
2023-05-22T04:29:36.586Z,99488.53
2023-05-22T04:31:41.528Z,99493.00
2023-05-22T04:33:48.591Z,99484.00
2023-05-22T04:35:51.675Z,99483.91
2023-05-22T04:37:56.462Z,99484.84
2023-05-22T04:40:06.573Z,99481.84
2023-05-22T04:42:09.765Z,99480.44
2023-05-22T04:44:12.937Z,99480.34
2023-05-22T04:46:16.585Z,99478.78
2023-05-22T04:48:21.499Z,99476.78
2023-05-22T04:50:24.456Z,99473.75
2023-05-22T04:52:27.522Z,99485.22
2023-05-22T04:54:30.453Z,99476.69
2023-05-22T04:56:36.886Z,99473.41
2023-05-22T04:58:40.833Z,99477.13
2023-05-22T05:00:43.932Z,99479.47
2023-05-22T05:02:47.778Z,99483.09
2023-05-22T05:04:53.480Z,99486.19
2023-05-22T05:06:57.929Z,99474.66
2023-05-22T05:09:02.416Z,99468.22
2023-05-22T05:11:05.864Z,99475.38
2023-05-22T05:13:08.998Z,99471.94
2023-05-22T05:15:14.984Z,99472.06
2023-05-22T05:17:18.873Z,99478.72
2023-05-22T05:19:21.887Z,99477.28
2023-05-22T05:21:28.270Z,99481.72
2023-05-22T05:23:35.190Z,99483.09
2023-05-22T05:25:39.092Z,99479.53
2023-05-22T05:27:43.070Z,99480.69
2023-05-22T05:29:47.110Z,99480.28
2023-05-22T05:31:58.118Z,99478.09
2023-05-22T05:34:13.858Z,99478.88
2023-05-22T05:36:41.923Z,99482.06
2023-05-22T05:38:45.003Z,99480.44
2023-05-22T05:40:50.036Z,99474.94
2023-05-22T05:42:53.336Z,99481.06
2023-05-22T05:45:00.717Z,99480.81
2023-05-22T05:47:07.024Z,99488.72
2023-05-22T05:49:11.605Z,99488.84
2023-05-22T05:51:16.568Z,99486.56
2023-05-22T05:53:21.804Z,99478.88
2023-05-22T05:55:30.795Z,99477.47
2023-05-22T05:57:35.020Z,99480.13
2023-05-22T05:59:38.250Z,99481.63
2023-05-22T06:01:56.276Z,99491.28
2023-05-22T06:04:04.461Z,99479.53
2023-05-22T06:06:09.546Z,99491.25
2023-05-22T06:08:43.009Z,99479.28
2023-05-22T06:10:47.292Z,99483.91
2023-05-22T06:12:53.150Z,99474.19
2023-05-22T06:14:56.275Z,99475.25
2023-05-22T06:16:59.302Z,99478.31
2023-05-22T06:19:02.894Z,99476.94
2023-05-22T06:21:06.247Z,99471.63
2023-05-22T06:23:10.247Z,99485.91
2023-05-22T06:25:14.673Z,99489.06
2023-05-22T06:27:17.727Z,99480.16
2023-05-22T06:29:21.534Z,99477.50
2023-05-22T06:31:26.491Z,99484.34
2023-05-22T06:33:32.435Z,99490.38
2023-05-22T06:35:36.042Z,99489.22
2023-05-22T06:37:39.270Z,99488.34
2023-05-22T06:39:42.577Z,99482.84
2023-05-22T06:41:55.500Z,99486.34
2023-05-22T06:43:58.790Z,99490.84
2023-05-22T06:46:05.862Z,99486.28
2023-05-22T06:48:17.439Z,99487.16
2023-05-22T06:50:35.151Z,99489.81
2023-05-22T06:52:39.480Z,99484.78
2023-05-22T06:54:45.440Z,99481.91
2023-05-22T06:56:51.177Z,99483.59
2023-05-22T06:58:56.513Z,99484.25
2023-05-22T07:01:08.180Z,99474.53
2023-05-22T07:03:16.917Z,99489.06
2023-05-22T07:05:40.211Z,99476.72
2023-05-22T07:07:43.848Z,99482.03
2023-05-22T07:09:47.099Z,99478.38
2023-05-22T07:11:50.348Z,99478.63
2023-05-22T07:13:53.318Z,99474.13
2023-05-22T07:15:58.236Z,99483.34
2023-05-22T07:18:01.492Z,99484.84
2023-05-22T07:20:05.860Z,99477.94
2023-05-22T07:22:11.117Z,99477.16
2023-05-22T07:24:16.176Z,99465.00
2023-05-22T07:26:20.358Z,99469.31
2023-05-22T07:28:31.608Z,99478.16
2023-05-22T07:30:44.678Z,99468.63
2023-05-22T07:32:49.318Z,99471.69
2023-05-22T07:34:52.855Z,99475.25
2023-05-22T07:36:55.748Z,99476.28
2023-05-22T07:38:58.878Z,99472.09
2023-05-22T07:41:04.981Z,99469.53
2023-05-22T07:43:09.864Z,99475.81
2023-05-22T07:45:12.928Z,99464.38
2023-05-22T07:47:16.250Z,99473.47
2023-05-22T07:49:22.415Z,99468.22
2023-05-22T07:51:26.750Z,99471.66
2023-05-22T07:53:29.905Z,99472.75
2023-05-22T07:55:35.685Z,99469.56
2023-05-22T07:57:39.236Z,99467.09
2023-05-22T07:59:51.119Z,99466.78
2023-05-22T08:01:54.214Z,99460.28
2023-05-22T08:03:57.485Z,99455.88
2023-05-22T08:06:02.082Z,99453.81
2023-05-22T08:08:05.405Z,99455.78
2023-05-22T08:10:15.050Z,99450.13
2023-05-22T08:12:18.065Z,99454.66
2023-05-22T08:14:22.238Z,99451.38
2023-05-22T08:16:25.337Z,99446.69
2023-05-22T08:18:29.775Z,99447.44
2023-05-22T08:20:33.935Z,99444.03
2023-05-22T08:22:39.755Z,99444.59
2023-05-22T08:24:42.821Z,99449.06
2023-05-22T08:26:45.992Z,99445.84
2023-05-22T08:28:48.996Z,99444.28
2023-05-22T08:30:52.377Z,99453.25
2023-05-22T08:32:55.883Z,99452.16
2023-05-22T08:34:59.848Z,99439.03
2023-05-22T08:37:02.914Z,99449.16
2023-05-22T08:39:09.029Z,99447.53
2023-05-22T08:41:13.200Z,99444.31
2023-05-22T08:43:16.492Z,99435.78
2023-05-22T08:45:20.169Z,99443.88
2023-05-22T08:47:27.135Z,99438.69
2023-05-22T08:49:31.281Z,99445.06
2023-05-22T08:51:36.070Z,99440.69
2023-05-22T08:53:41.133Z,99444.09
2023-05-22T08:55:46.050Z,99444.53
2023-05-22T08:57:50.540Z,99440.97
2023-05-22T08:59:54.092Z,99440.63
2023-05-22T09:01:58.423Z,99445.41
2023-05-22T09:04:02.472Z,99443.56
2023-05-22T09:06:09.669Z,99450.34
2023-05-22T09:08:20.534Z,99456.56
2023-05-22T09:10:24.407Z,99451.38
2023-05-22T09:12:28.823Z,99449.06
2023-05-22T09:14:39.565Z,99439.91
2023-05-22T09:16:47.354Z,99442.03
2023-05-22T09:18:50.925Z,99437.56
2023-05-22T09:20:54.067Z,99447.59
2023-05-22T09:22:57.305Z,99436.50
2023-05-22T09:25:00.174Z,99435.66
2023-05-22T09:27:04.503Z,99434.47
2023-05-22T09:29:09.485Z,99434.53
2023-05-22T09:31:12.851Z,99433.28
2023-05-22T09:33:17.427Z,99437.94
2023-05-22T09:35:21.262Z,99433.88
2023-05-22T09:37:24.294Z,99439.91
2023-05-22T09:39:38.486Z,99423.66
2023-05-22T09:41:41.615Z,99421.00
2023-05-22T09:43:51.550Z,99426.97
2023-05-22T09:46:02.287Z,99416.06
2023-05-22T09:48:06.367Z,99418.31
2023-05-22T09:50:11.119Z,99426.56
2023-05-22T09:52:14.255Z,99418.50
2023-05-22T09:54:19.197Z,99414.78
2023-05-22T09:56:37.860Z,99413.84
2023-05-22T09:58:45.368Z,99405.91
2023-05-22T10:00:50.291Z,99409.00
2023-05-22T10:03:03.734Z,99416.38
2023-05-22T10:05:09.784Z,99404.75
2023-05-22T10:07:14.211Z,99403.34
2023-05-22T10:09:19.768Z,99398.16
2023-05-22T10:11:24.075Z,99392.97
2023-05-22T10:13:28.318Z,99400.69
2023-05-22T10:15:32.554Z,99393.22
2023-05-22T10:17:37.192Z,99396.00
2023-05-22T10:19:43.938Z,99394.56
2023-05-22T10:21:50.198Z,99384.22
2023-05-22T10:23:53.976Z,99389.50
2023-05-22T10:25:58.059Z,99387.13
2023-05-22T10:28:01.527Z,99387.28
2023-05-22T10:30:21.280Z,99391.25
2023-05-22T10:32:48.450Z,99385.31
2023-05-22T10:35:02.471Z,99384.03
2023-05-22T10:37:31.687Z,99387.09
2023-05-22T10:39:43.608Z,99391.44
2023-05-22T10:41:47.198Z,99389.38
2023-05-22T10:43:51.262Z,99385.34
2023-05-22T10:46:03.532Z,99383.06
2023-05-22T10:48:07.714Z,99383.22
2023-05-22T10:50:13.022Z,99384.19
2023-05-22T10:52:18.879Z,99379.00
2023-05-22T10:54:39.599Z,99377.69
2023-05-22T10:56:42.652Z,99389.91
2023-05-22T10:58:56.945Z,99380.72
2023-05-22T11:01:13.049Z,99379.81
2023-05-22T11:03:18.401Z,99377.19
2023-05-22T11:05:39.091Z,99382.75
2023-05-22T11:07:42.082Z,99382.66
2023-05-22T11:09:48.113Z,99380.59
2023-05-22T11:12:18.402Z,99369.66
2023-05-22T11:14:21.390Z,99374.50
2023-05-22T11:16:24.477Z,99374.31
2023-05-22T11:18:29.878Z,99372.31
2023-05-22T11:20:40.482Z,99377.22
2023-05-22T11:22:45.519Z,99375.31
2023-05-22T11:24:49.216Z,99375.28
2023-05-22T11:27:03.837Z,99379.00
2023-05-22T11:29:09.103Z,99379.63
2023-05-22T11:31:12.245Z,99369.25
2023-05-22T11:33:15.748Z,99374.13
2023-05-22T11:35:20.245Z,99383.00
2023-05-22T11:37:24.973Z,99365.88
2023-05-22T11:39:28.159Z,99376.56
2023-05-22T11:41:33.941Z,99364.69
2023-05-22T11:43:37.873Z,99366.69
2023-05-22T11:45:41.000Z,99368.81
2023-05-22T11:47:45.059Z,99368.78
2023-05-22T11:49:48.044Z,99375.06
2023-05-22T11:51:52.181Z,99369.59
2023-05-22T11:53:57.702Z,99375.22
2023-05-22T11:56:04.629Z,99379.31
2023-05-22T11:58:07.547Z,99367.25
2023-05-22T12:00:12.584Z,99368.25
2023-05-22T12:02:16.945Z,99367.69
2023-05-22T12:04:19.965Z,99359.91
2023-05-22T12:06:23.274Z,99357.44
2023-05-22T12:08:26.866Z,99363.88
2023-05-22T12:10:32.318Z,99357.31
2023-05-22T12:12:35.425Z,99352.44
2023-05-22T12:14:38.935Z,99345.78
2023-05-22T12:16:42.128Z,99357.78
2023-05-22T12:18:45.130Z,99357.13
2023-05-22T12:20:48.185Z,99354.22
2023-05-22T12:22:51.272Z,99352.09
2023-05-22T12:24:54.309Z,99350.66
2023-05-22T12:26:58.761Z,99349.50
2023-05-22T12:29:01.946Z,99337.69
2023-05-22T12:31:05.217Z,99347.13
2023-05-22T12:33:14.384Z,99339.63
2023-05-22T12:35:17.878Z,99338.81
2023-05-22T12:37:22.340Z,99337.19
2023-05-22T12:39:25.806Z,99341.09
2023-05-22T12:41:29.005Z,99328.63
2023-05-22T12:43:33.465Z,99338.66
2023-05-22T12:45:36.597Z,99335.09
2023-05-22T12:47:39.729Z,99335.59
2023-05-22T12:49:42.771Z,99330.06
2023-05-22T12:51:46.030Z,99334.97
2023-05-22T12:53:49.209Z,99320.13
2023-05-22T12:55:52.072Z,99329.88
2023-05-22T12:57:55.156Z,99320.06
2023-05-22T12:59:59.620Z,99332.84
2023-05-22T13:02:03.659Z,99329.75
2023-05-22T13:04:06.756Z,99321.81
2023-05-22T13:06:09.885Z,99324.75
2023-05-22T13:08:12.866Z,99326.53
2023-05-22T13:10:16.083Z,99327.00
2023-05-22T13:12:19.863Z,99325.56
2023-05-22T13:14:22.982Z,99324.06
2023-05-22T13:16:27.628Z,99329.28
2023-05-22T13:18:30.949Z,99320.38
2023-05-22T13:20:36.333Z,99326.66
2023-05-22T13:22:39.034Z,99324.25
2023-05-22T13:24:42.146Z,99325.06
2023-05-22T13:26:45.072Z,99326.50
2023-05-22T13:28:48.001Z,99314.75
2023-05-22T13:30:51.039Z,99318.94
2023-05-22T13:32:55.966Z,99321.81
2023-05-22T13:34:59.136Z,99319.97
2023-05-22T13:37:02.110Z,99318.00
2023-05-22T13:39:05.226Z,99315.31
2023-05-22T13:41:08.096Z,99322.97
2023-05-22T13:43:11.336Z,99318.13
2023-05-22T13:45:14.754Z,99316.44
2023-05-22T13:47:18.255Z,99313.09
2023-05-22T13:49:22.823Z,99309.06
2023-05-22T13:51:25.816Z,99302.59
2023-05-22T13:53:28.834Z,99301.81
2023-05-22T13:55:32.130Z,99303.28
2023-05-22T13:57:35.276Z,99299.50
2023-05-22T13:59:38.310Z,99302.47
2023-05-22T14:01:41.592Z,99304.34
2023-05-22T14:03:45.058Z,99303.53
2023-05-22T14:05:49.691Z,99293.88
2023-05-22T14:07:52.740Z,99302.63
2023-05-22T14:09:55.686Z,99294.69
2023-05-22T14:11:58.726Z,99294.13
2023-05-22T14:14:01.745Z,99280.19
2023-05-22T14:16:05.001Z,99284.03
2023-05-22T14:18:08.138Z,99276.97
2023-05-22T14:20:11.975Z,99280.19
2023-05-22T14:22:16.349Z,99272.75
2023-05-22T14:24:19.304Z,99273.06
2023-05-22T14:26:22.628Z,99274.78
2023-05-22T14:28:26.379Z,99269.47
2023-05-22T14:30:29.305Z,99270.34
2023-05-22T14:32:32.334Z,99272.22
2023-05-22T14:34:35.218Z,99259.09
2023-05-22T14:36:38.264Z,99258.03
2023-05-22T14:38:42.793Z,99259.19
2023-05-22T14:40:46.052Z,99265.28
2023-05-22T14:42:49.553Z,99261.78
2023-05-22T14:44:53.282Z,99259.81
2023-05-22T14:46:56.227Z,99246.66
2023-05-22T14:48:59.493Z,99255.78
2023-05-22T14:51:02.446Z,99258.09
2023-05-22T14:53:05.345Z,99256.06
2023-05-22T14:55:10.494Z,99254.16
2023-05-22T14:57:13.428Z,99246.97
2023-05-22T14:59:16.553Z,99249.03
2023-05-22T15:01:19.717Z,99246.66
2023-05-22T15:03:23.904Z,99243.09
2023-05-22T15:05:27.254Z,99246.38
2023-05-22T15:07:43.150Z,99244.19
2023-05-22T15:09:47.385Z,99253.78
2023-05-22T15:11:51.858Z,99241.25
2023-05-22T15:13:54.860Z,99241.28
2023-05-22T15:15:58.737Z,99240.22
2023-05-22T15:18:05.045Z,99243.03
2023-05-22T15:20:09.606Z,99240.53
2023-05-22T15:22:19.348Z,99236.81
2023-05-22T15:24:22.995Z,99243.91
2023-05-22T15:26:26.008Z,99235.94
2023-05-22T15:28:30.378Z,99227.78
2023-05-22T15:30:39.095Z,99226.81
2023-05-22T15:32:42.049Z,99231.25
2023-05-22T15:34:45.028Z,99226.19
2023-05-22T15:36:47.920Z,99223.03
2023-05-22T15:38:51.237Z,99223.75
2023-05-22T15:40:54.104Z,99221.56
2023-05-22T15:42:57.219Z,99216.22
2023-05-22T15:45:01.740Z,99215.84
2023-05-22T15:47:04.799Z,99215.31
2023-05-22T15:49:07.801Z,99206.44
2023-05-22T15:51:11.175Z,99212.72
2023-05-22T15:53:14.202Z,99209.28
2023-05-22T15:55:17.339Z,99210.38
2023-05-22T15:57:20.477Z,99201.97
2023-05-22T15:59:23.765Z,99205.50
2023-05-22T16:01:29.918Z,99199.41
2023-05-22T16:03:33.302Z,99194.69
2023-05-22T16:05:37.021Z,99204.06
2023-05-22T16:07:39.997Z,99192.75
2023-05-22T16:09:43.718Z,99189.63
2023-05-22T16:11:46.810Z,99196.47
2023-05-22T16:13:49.881Z,99186.84
2023-05-22T16:15:53.006Z,99188.56
2023-05-22T16:17:57.781Z,99184.31
2023-05-22T16:20:01.027Z,99183.28
2023-05-22T16:22:04.487Z,99189.97
2023-05-22T16:24:07.629Z,99187.84
2023-05-22T16:26:10.513Z,99182.47
2023-05-22T16:28:13.784Z,99193.63
2023-05-22T16:30:17.646Z,99184.81
2023-05-22T16:32:21.001Z,99189.88
2023-05-22T16:34:25.674Z,99178.22
2023-05-22T16:36:28.678Z,99185.03
2023-05-22T16:38:31.575Z,99186.13
2023-05-22T16:40:34.583Z,99185.91
2023-05-22T16:42:38.642Z,99196.00
2023-05-22T16:44:41.637Z,99189.16
2023-05-22T16:46:44.649Z,99192.22
2023-05-22T16:48:48.058Z,99189.59
2023-05-22T16:50:52.739Z,99185.84
2023-05-22T16:52:55.737Z,99194.06
2023-05-22T16:54:58.598Z,99190.38
2023-05-22T16:57:02.188Z,99200.53
2023-05-22T16:59:05.517Z,99197.19
2023-05-22T17:01:08.718Z,99198.06
2023-05-22T17:03:12.303Z,99201.22
2023-05-22T17:05:15.717Z,99200.91
2023-05-22T17:07:20.037Z,99195.25
2023-05-22T17:09:23.027Z,99205.03
2023-05-22T17:11:26.692Z,99198.66
2023-05-22T17:13:29.797Z,99202.16
2023-05-22T17:15:32.828Z,99204.50
2023-05-22T17:17:35.949Z,99207.38
2023-05-22T17:19:39.443Z,99206.88
2023-05-22T17:21:43.583Z,99210.09
2023-05-22T17:23:48.004Z,99214.25
2023-05-22T17:25:51.662Z,99208.13
2023-05-22T17:27:54.606Z,99207.53
2023-05-22T17:29:57.905Z,99210.28
2023-05-22T17:32:00.983Z,99207.59
2023-05-22T17:34:04.896Z,99199.19
2023-05-22T17:36:07.950Z,99198.75
2023-05-22T17:38:11.018Z,99202.13
2023-05-22T17:40:15.734Z,99199.28
2023-05-22T17:42:19.187Z,99199.38
2023-05-22T17:44:22.235Z,99198.78
2023-05-22T17:46:26.960Z,99202.16
2023-05-22T17:48:29.944Z,99207.00
2023-05-22T17:50:32.927Z,99205.22
2023-05-22T17:52:36.445Z,99204.44
2023-05-22T17:54:39.415Z,99205.81
2023-05-22T17:56:43.953Z,99205.78
2023-05-22T17:58:46.926Z,99203.13
2023-05-22T18:00:50.082Z,99207.38
2023-05-22T18:02:53.551Z,99208.06
2023-05-22T18:04:56.608Z,99200.72
2023-05-22T18:07:00.203Z,99202.09
2023-05-22T18:09:04.721Z,99196.16
2023-05-22T18:11:07.812Z,99203.19
2023-05-22T18:13:12.256Z,99199.34
2023-05-22T18:15:15.426Z,99189.53
2023-05-22T18:17:18.541Z,99198.03
2023-05-22T18:19:21.886Z,99195.38
2023-05-22T18:21:24.943Z,99200.25
2023-05-22T18:23:28.075Z,99194.03
2023-05-22T18:25:31.166Z,99194.09
2023-05-22T18:27:34.278Z,99189.06
2023-05-22T18:29:39.856Z,99190.16
2023-05-22T18:31:43.453Z,99193.47
2023-05-22T18:33:46.667Z,99195.66
2023-05-22T18:35:49.723Z,99202.75
2023-05-22T18:37:52.756Z,99200.06
2023-05-22T18:39:55.901Z,99201.97
2023-05-22T18:41:58.988Z,99203.91
2023-05-22T18:44:02.011Z,99196.34
2023-05-22T18:46:06.340Z,99209.97
2023-05-22T18:48:09.388Z,99204.25
2023-05-22T18:50:13.250Z,99197.22
2023-05-22T18:52:16.240Z,99207.28
2023-05-22T18:54:19.142Z,99202.41
2023-05-22T18:56:22.180Z,99198.88
2023-05-22T18:58:25.090Z,99201.88
2023-05-22T19:00:28.702Z,99200.50
2023-05-22T19:02:33.209Z,99206.25
2023-05-22T19:04:36.302Z,99201.63
2023-05-22T19:06:42.436Z,99206.78
2023-05-22T19:08:45.533Z,99208.69
2023-05-22T19:10:48.363Z,99204.06
2023-05-22T19:12:51.234Z,99205.16
2023-05-22T19:14:54.194Z,99202.66
2023-05-22T19:16:59.663Z,99204.81
2023-05-22T19:19:03.888Z,99207.78
2023-05-22T19:21:06.922Z,99209.63
2023-05-22T19:23:11.659Z,99213.91
2023-05-22T19:25:14.629Z,99210.59
2023-05-22T19:27:18.418Z,99209.00
2023-05-22T19:29:21.455Z,99210.31
2023-05-22T19:31:24.236Z,99209.88
2023-05-22T19:33:27.956Z,99215.34
2023-05-22T19:35:32.406Z,99221.28
2023-05-22T19:37:35.378Z,99212.88
2023-05-22T19:39:38.739Z,99216.06
2023-05-22T19:41:41.712Z,99217.50
2023-05-22T19:43:45.054Z,99214.44
2023-05-22T19:45:48.175Z,99218.56
2023-05-22T19:47:51.224Z,99218.84
2023-05-22T19:49:54.245Z,99222.09
2023-05-22T19:51:59.804Z,99223.13
2023-05-22T19:54:02.726Z,99222.84
2023-05-22T19:56:06.086Z,99220.91
2023-05-22T19:58:09.139Z,99218.00
2023-05-22T20:00:13.247Z,99207.56
2023-05-22T20:02:16.321Z,99210.13
2023-05-22T20:04:19.274Z,99208.41
2023-05-22T20:06:22.427Z,99206.34
2023-05-22T20:08:27.111Z,99204.41
2023-05-22T20:10:31.627Z,99202.81
2023-05-22T20:12:34.960Z,99195.00
2023-05-22T20:14:38.390Z,99210.84
2023-05-22T20:16:41.598Z,99206.00
2023-05-22T20:18:45.240Z,99199.34
2023-05-22T20:20:48.350Z,99197.53
2023-05-22T20:22:53.051Z,99197.22
2023-05-22T20:24:57.400Z,99198.09
2023-05-22T20:27:01.715Z,99191.75
2023-05-22T20:29:04.676Z,99200.34
2023-05-22T20:31:07.654Z,99199.72
2023-05-22T20:33:12.183Z,99202.00
2023-05-22T20:35:18.978Z,99194.59
2023-05-22T20:37:22.205Z,99196.03
2023-05-22T20:39:26.729Z,99190.34
2023-05-22T20:41:31.995Z,99188.19
2023-05-22T20:43:35.188Z,99192.22
2023-05-22T20:45:38.550Z,99190.44
2023-05-22T20:47:41.764Z,99192.53
2023-05-22T20:49:44.649Z,99193.47
2023-05-22T20:51:47.644Z,99189.72
2023-05-22T20:53:53.195Z,99182.41
2023-05-22T20:55:57.779Z,99180.19
2023-05-22T20:58:02.278Z,99177.34
2023-05-22T21:00:08.836Z,99179.81
2023-05-22T21:02:12.175Z,99183.34
2023-05-22T21:04:15.193Z,99171.13
2023-05-22T21:06:18.978Z,99182.59
2023-05-22T21:08:21.996Z,99182.56
2023-05-22T21:10:24.967Z,99181.44
2023-05-22T21:12:28.055Z,99184.56
2023-05-22T21:14:32.436Z,99178.66
2023-05-22T21:16:37.607Z,99177.19
2023-05-22T21:18:42.148Z,99177.53
2023-05-22T21:20:45.086Z,99182.56
2023-05-22T21:22:48.517Z,99179.72
2023-05-22T21:24:51.607Z,99179.38
2023-05-22T21:26:54.596Z,99177.59
2023-05-22T21:28:57.627Z,99177.59
2023-05-22T21:31:02.123Z,99177.19
2023-05-22T21:33:05.359Z,99185.59
2023-05-22T21:35:09.316Z,99188.06
2023-05-22T21:37:12.268Z,99185.69
2023-05-22T21:39:15.198Z,99182.25
2023-05-22T21:41:18.467Z,99186.81
2023-05-22T21:43:21.406Z,99183.47
2023-05-22T21:45:24.469Z,99185.88
2023-05-22T21:47:28.905Z,99181.66
2023-05-22T21:49:31.928Z,99187.03
2023-05-22T21:51:34.756Z,99183.75
2023-05-22T21:53:37.758Z,99186.53
2023-05-22T21:55:40.710Z,99185.34
2023-05-22T21:57:45.799Z,99185.66
2023-05-22T21:59:49.054Z,99183.03
2023-05-22T22:01:52.177Z,99172.63
2023-05-22T22:03:56.704Z,99175.06
2023-05-22T22:06:00.189Z,99176.22
2023-05-22T22:08:03.147Z,99170.66
2023-05-22T22:10:07.185Z,99172.75
2023-05-22T22:12:10.195Z,99172.75
2023-05-22T22:14:13.124Z,99165.75
2023-05-22T22:16:16.971Z,99167.38
2023-05-22T22:18:19.952Z,99166.59
2023-05-22T22:20:43.293Z,99168.06
2023-05-22T22:22:47.442Z,99169.31
2023-05-22T22:24:50.332Z,99169.06
2023-05-22T22:26:53.352Z,99170.38
2023-05-22T22:28:56.511Z,99171.31
2023-05-22T22:30:59.607Z,99164.78
2023-05-22T22:33:02.725Z,99159.38
2023-05-22T22:35:06.942Z,99159.84
2023-05-22T22:37:11.515Z,99162.69
2023-05-22T22:39:14.658Z,99165.38
2023-05-22T22:41:17.807Z,99158.59
2023-05-22T22:43:20.892Z,99165.16
2023-05-22T22:45:23.928Z,99159.50
2023-05-22T22:47:28.296Z,99156.25
2023-05-22T22:49:32.065Z,99166.75
2023-05-22T22:51:35.057Z,99161.88
2023-05-22T22:53:39.368Z,99160.72
2023-05-22T22:55:42.656Z,99146.81
2023-05-22T22:57:50.272Z,99148.00
2023-05-22T22:59:53.549Z,99156.81
2023-05-22T23:01:56.751Z,99150.72
2023-05-22T23:03:59.829Z,99145.56
2023-05-22T23:06:03.136Z,99147.91
2023-05-22T23:08:06.288Z,99145.53
2023-05-22T23:10:11.269Z,99140.84
2023-05-22T23:12:14.251Z,99147.66
2023-05-22T23:14:18.128Z,99131.06
2023-05-22T23:16:23.286Z,99137.59
2023-05-22T23:18:26.568Z,99140.28
2023-05-22T23:20:29.687Z,99135.97
2023-05-22T23:22:32.738Z,99130.56
2023-05-22T23:24:35.799Z,99136.31
2023-05-22T23:26:40.288Z,99133.28
2023-05-22T23:28:43.193Z,99122.28
2023-05-22T23:30:46.633Z,99122.03
2023-05-22T23:32:49.602Z,99128.75
2023-05-22T23:34:52.652Z,99132.59
2023-05-22T23:36:55.734Z,99119.84
2023-05-22T23:38:58.598Z,99126.66
2023-05-22T23:41:01.904Z,99111.78
2023-05-22T23:43:06.450Z,99115.41
2023-05-22T23:45:09.615Z,99119.13
2023-05-22T23:47:12.848Z,99119.72
2023-05-22T23:49:16.306Z,99116.81
2023-05-22T23:51:19.238Z,99115.75
2023-05-22T23:53:22.168Z,99107.91
2023-05-22T23:55:25.080Z,99114.56
2023-05-22T23:57:28.187Z,99108.84
2023-05-22T23:59:32.640Z,99104.16
